createdAt,value
2023-05-15T00:00:16.849Z,9.05
2023-05-15T00:02:44.600Z,10.43
2023-05-15T00:05:12.119Z,9.90
2023-05-15T00:07:38.633Z,9.98
2023-05-15T00:10:05.234Z,10.60
2023-05-15T00:12:32.065Z,11.02
2023-05-15T00:14:58.257Z,10.45
2023-05-15T00:17:25.365Z,10.60
2023-05-15T00:19:51.544Z,11.00
2023-05-15T00:22:17.839Z,11.10
2023-05-15T00:24:44.044Z,11.63
2023-05-15T00:27:10.501Z,10.95
2023-05-15T00:29:36.700Z,12.38
2023-05-15T00:32:03.006Z,12.25
2023-05-15T00:34:29.268Z,11.85
2023-05-15T00:36:55.495Z,11.90
2023-05-15T00:39:21.716Z,12.10
2023-05-15T00:41:48.379Z,12.15
2023-05-15T00:44:15.437Z,12.65
2023-05-15T00:46:41.964Z,12.50
2023-05-15T00:49:13.274Z,13.75
2023-05-15T00:51:42.904Z,14.50
2023-05-15T00:54:09.552Z,12.63
2023-05-15T00:56:35.958Z,12.65
2023-05-15T00:59:03.040Z,13.82
2023-05-15T01:01:33.414Z,13.95
2023-05-15T01:04:03.537Z,13.75
2023-05-15T01:06:30.316Z,13.98
2023-05-15T01:08:57.686Z,14.13
2023-05-15T01:11:24.769Z,15.07
2023-05-15T01:13:51.004Z,15.98
2023-05-15T01:16:17.198Z,15.65
2023-05-15T01:18:43.568Z,14.98
2023-05-15T01:21:25.363Z,15.57
2023-05-15T01:26:38.595Z,14.68
2023-05-15T01:29:07.981Z,15.77
2023-05-15T01:31:35.153Z,16.23
2023-05-15T01:34:03.586Z,16.10
2023-05-15T01:36:33.148Z,16.08
2023-05-15T01:39:01.218Z,16.38
2023-05-15T01:41:41.395Z,16.50
2023-05-15T01:44:10.645Z,16.67
2023-05-15T01:46:38.689Z,18.35
2023-05-15T01:49:05.964Z,18.77
2023-05-15T01:51:33.129Z,18.55
2023-05-15T01:53:59.473Z,18.70
2023-05-15T01:56:26.107Z,20.20
2023-05-15T01:58:52.532Z,21.65
2023-05-15T02:01:19.330Z,22.42
2023-05-15T02:03:46.029Z,22.67
2023-05-15T02:06:12.693Z,23.88
2023-05-15T02:08:39.492Z,25.48
2023-05-15T02:11:06.301Z,25.27
2023-05-15T02:13:33.050Z,24.95
2023-05-15T02:15:59.364Z,25.70
2023-05-15T02:18:25.933Z,25.00
2023-05-15T02:20:52.188Z,25.83
2023-05-15T02:23:20.355Z,26.85
2023-05-15T02:25:55.643Z,27.60
2023-05-15T02:28:30.500Z,26.70
2023-05-15T02:31:01.698Z,26.27
2023-05-15T02:33:27.900Z,27.10
2023-05-15T02:35:59.392Z,26.33
2023-05-15T02:40:54.621Z,26.77
2023-05-15T02:43:21.006Z,26.88
2023-05-15T02:45:47.873Z,27.88
2023-05-15T02:48:15.336Z,28.00
2023-05-15T02:50:42.172Z,26.83
2023-05-15T02:53:09.743Z,29.40
2023-05-15T02:55:36.236Z,28.95
2023-05-15T02:58:03.069Z,29.95
2023-05-15T03:00:29.331Z,30.38
2023-05-15T03:02:55.646Z,30.42
2023-05-15T03:05:21.930Z,30.60
2023-05-15T03:07:48.132Z,32.78
2023-05-15T03:10:14.456Z,30.67
2023-05-15T03:12:40.667Z,31.45
2023-05-15T03:15:07.183Z,30.50
2023-05-15T03:17:33.451Z,31.55
2023-05-15T03:19:59.749Z,31.80
2023-05-15T03:22:25.975Z,30.88
2023-05-15T03:24:52.200Z,29.40
2023-05-15T03:27:18.385Z,29.55
2023-05-15T03:29:44.842Z,29.90
2023-05-15T03:32:11.130Z,29.23
2023-05-15T03:34:38.752Z,27.98
2023-05-15T03:37:06.588Z,27.98
2023-05-15T03:39:32.828Z,28.83
2023-05-15T03:41:59.100Z,27.90
2023-05-15T03:44:25.294Z,28.17
2023-05-15T03:46:51.520Z,28.55
2023-05-15T03:49:17.827Z,29.02
2023-05-15T03:51:44.069Z,30.42
2023-05-15T03:54:10.412Z,29.67
2023-05-15T03:56:36.611Z,31.75
2023-05-15T03:59:03.367Z,32.63
2023-05-15T04:01:29.593Z,34.15
2023-05-15T04:03:55.847Z,33.78
2023-05-15T04:06:22.769Z,31.77
2023-05-15T04:08:49.397Z,32.92
2023-05-15T04:11:16.144Z,35.10
2023-05-15T04:13:42.430Z,34.00
2023-05-15T04:16:08.691Z,36.33
2023-05-15T04:18:34.966Z,37.15
2023-05-15T04:21:01.215Z,35.75
2023-05-15T04:23:27.392Z,37.40
2023-05-15T04:25:53.684Z,37.28
2023-05-15T04:28:21.726Z,38.00
2023-05-15T04:30:47.964Z,37.80
2023-05-15T04:33:14.221Z,39.47
2023-05-15T04:35:40.449Z,38.95
2023-05-15T04:38:06.761Z,41.17
2023-05-15T04:40:32.981Z,40.53
2023-05-15T04:42:59.187Z,38.90
2023-05-15T04:45:25.676Z,39.95
2023-05-15T04:47:52.145Z,39.13
2023-05-15T04:50:18.487Z,40.78
2023-05-15T04:52:45.768Z,40.72
2023-05-15T04:55:11.962Z,40.72
2023-05-15T04:57:38.260Z,39.55
2023-05-15T05:00:12.218Z,37.78
2023-05-15T05:02:39.095Z,42.55
2023-05-15T05:05:06.155Z,41.45
2023-05-15T05:07:32.518Z,42.55
2023-05-15T05:09:58.911Z,42.75
2023-05-15T05:12:26.027Z,41.60
2023-05-15T05:14:55.387Z,44.35
2023-05-15T05:17:21.965Z,44.70
2023-05-15T05:19:48.297Z,47.10
2023-05-15T05:22:14.501Z,45.47
2023-05-15T05:24:40.788Z,43.72
2023-05-15T05:27:06.983Z,42.65
2023-05-15T05:29:33.590Z,42.85
2023-05-15T05:31:59.997Z,40.85
2023-05-15T05:34:26.365Z,38.05
2023-05-15T05:36:52.653Z,36.40
2023-05-15T05:39:18.868Z,35.75
2023-05-15T05:41:45.267Z,33.97
2023-05-15T05:44:11.517Z,33.10
2023-05-15T05:46:37.852Z,31.20
2023-05-15T05:49:04.139Z,29.85
2023-05-15T05:51:31.556Z,29.40
2023-05-15T05:53:57.797Z,27.90
2023-05-15T05:56:24.096Z,30.55
2023-05-15T05:58:50.400Z,29.42
2023-05-15T06:01:16.817Z,29.42
2023-05-15T06:03:43.796Z,30.05
2023-05-15T06:06:10.179Z,30.50
2023-05-15T06:08:36.453Z,29.92
2023-05-15T06:11:03.120Z,28.77
2023-05-15T06:13:29.399Z,29.95
2023-05-15T06:15:55.906Z,31.15
2023-05-15T06:18:22.170Z,31.90
2023-05-15T06:20:48.382Z,33.03
2023-05-15T06:23:14.658Z,32.15
2023-05-15T06:25:40.881Z,32.80
2023-05-15T06:28:07.110Z,32.08
2023-05-15T06:30:33.374Z,34.33
2023-05-15T06:32:59.804Z,30.95
2023-05-15T06:35:26.448Z,31.35
2023-05-15T06:37:53.245Z,32.42
2023-05-15T06:40:20.569Z,33.22
2023-05-15T06:42:47.162Z,32.75
2023-05-15T06:45:13.423Z,35.67
2023-05-15T06:47:39.657Z,36.28
2023-05-15T06:50:06.449Z,36.35
2023-05-15T06:52:32.668Z,36.42
2023-05-15T06:54:58.874Z,38.15
2023-05-15T06:57:25.060Z,38.67
2023-05-15T06:59:51.541Z,41.28
2023-05-15T07:02:17.788Z,40.22
2023-05-15T07:04:44.066Z,42.58
2023-05-15T07:07:10.348Z,42.72
2023-05-15T07:09:36.596Z,42.53
2023-05-15T07:12:03.659Z,41.05
2023-05-15T07:14:29.872Z,38.97
2023-05-15T07:16:56.201Z,41.03
2023-05-15T07:19:22.557Z,41.15
2023-05-15T07:21:48.922Z,37.95
2023-05-15T07:24:15.241Z,36.33
2023-05-15T07:26:56.943Z,39.15
2023-05-15T07:29:24.857Z,37.15
2023-05-15T07:31:51.097Z,39.15
2023-05-15T07:34:17.362Z,37.65
2023-05-15T07:36:43.569Z,37.67
2023-05-15T07:39:10.082Z,36.88
2023-05-15T07:41:36.722Z,39.50
2023-05-15T07:44:03.040Z,37.47
2023-05-15T07:46:29.389Z,38.42
2023-05-15T07:48:55.595Z,36.97
2023-05-15T07:51:22.006Z,38.22
2023-05-15T07:53:48.212Z,38.75
2023-05-15T07:56:14.532Z,36.90
2023-05-15T07:58:40.765Z,39.75
2023-05-15T08:01:07.467Z,42.10
2023-05-15T08:03:33.894Z,38.15
2023-05-15T08:06:00.257Z,39.75
2023-05-15T08:08:26.459Z,40.85
2023-05-15T08:10:52.661Z,37.30
2023-05-15T08:13:18.890Z,38.78
2023-05-15T08:15:45.230Z,36.42
2023-05-15T08:18:11.562Z,35.22
2023-05-15T08:20:38.512Z,33.92
2023-05-15T08:23:04.713Z,33.47
2023-05-15T08:25:30.922Z,35.92
2023-05-15T08:27:57.219Z,34.05
2023-05-15T08:30:23.505Z,34.78
2023-05-15T08:32:49.804Z,32.67
2023-05-15T08:35:16.125Z,32.53
2023-05-15T08:37:42.330Z,33.70
2023-05-15T08:40:09.202Z,31.02
2023-05-15T08:42:39.110Z,28.77
2023-05-15T08:45:06.618Z,29.02
2023-05-15T08:47:35.255Z,27.38
2023-05-15T08:50:01.780Z,26.40
2023-05-15T08:52:28.544Z,26.88
2023-05-15T08:54:54.792Z,25.85
2023-05-15T08:57:21.209Z,26.15
2023-05-15T08:59:48.385Z,26.17
2023-05-15T09:02:15.510Z,25.05
2023-05-15T09:04:41.857Z,23.42
2023-05-15T09:07:09.572Z,24.35
2023-05-15T09:09:36.184Z,22.17
2023-05-15T09:12:03.677Z,21.65
2023-05-15T09:14:29.960Z,20.92
2023-05-15T09:16:56.308Z,21.20
2023-05-15T09:19:22.741Z,21.30
2023-05-15T09:21:49.408Z,20.77
2023-05-15T09:24:17.570Z,19.60
2023-05-15T09:26:44.557Z,17.92
2023-05-15T09:29:11.559Z,18.65
2023-05-15T09:31:37.884Z,18.42
2023-05-15T09:34:09.274Z,18.90
2023-05-15T09:39:02.711Z,17.88
2023-05-15T09:41:29.308Z,18.70
2023-05-15T09:43:56.552Z,18.48
2023-05-15T09:46:23.455Z,19.52
2023-05-15T09:48:53.751Z,17.75
2023-05-15T09:51:20.564Z,16.83
2023-05-15T09:53:51.434Z,17.00
2023-05-15T09:56:17.870Z,16.15
2023-05-15T09:58:54.445Z,18.38
2023-05-15T10:01:21.568Z,19.30
2023-05-15T10:04:08.227Z,17.20
2023-05-15T10:06:36.078Z,18.30
2023-05-15T10:09:02.848Z,19.80
2023-05-15T10:11:30.531Z,18.00
2023-05-15T10:13:58.450Z,15.98
2023-05-15T10:16:25.381Z,15.18
2023-05-15T10:18:52.451Z,15.10
2023-05-15T10:21:19.973Z,16.48
2023-05-15T10:23:47.631Z,15.07
2023-05-15T10:26:32.992Z,14.45
2023-05-15T10:29:00.160Z,15.75
2023-05-15T10:31:26.388Z,17.83
2023-05-15T10:33:53.550Z,16.65
2023-05-15T10:36:20.439Z,15.35
2023-05-15T10:38:48.004Z,14.77
2023-05-15T10:41:18.142Z,15.32
2023-05-15T10:43:45.648Z,14.38
2023-05-15T10:46:13.128Z,12.68
2023-05-15T10:48:39.830Z,12.93
2023-05-15T10:51:13.070Z,13.77
2023-05-15T10:53:39.733Z,12.68
2023-05-15T10:56:06.281Z,13.63
2023-05-15T10:58:34.553Z,12.70
2023-05-15T11:01:00.805Z,13.15
2023-05-15T11:03:47.845Z,12.10
2023-05-15T11:06:15.349Z,12.23
2023-05-15T11:08:42.848Z,13.27
2023-05-15T11:11:09.138Z,16.50
2023-05-15T11:13:55.274Z,16.73
2023-05-15T11:16:59.886Z,14.45
2023-05-15T11:19:26.043Z,14.75
2023-05-15T11:22:10.998Z,14.15
2023-05-15T11:24:49.127Z,13.82
2023-05-15T11:27:19.869Z,13.60
2023-05-15T11:30:05.743Z,12.93
2023-05-15T11:32:33.255Z,12.85
2023-05-15T11:35:00.170Z,13.10
2023-05-15T11:37:27.416Z,12.57
2023-05-15T11:39:53.655Z,14.23
2023-05-15T11:42:20.090Z,13.57
2023-05-15T11:44:46.637Z,14.50
2023-05-15T11:47:13.297Z,13.98
2023-05-15T11:49:39.616Z,14.32
2023-05-15T11:52:06.264Z,14.00
2023-05-15T11:54:32.504Z,12.68
2023-05-15T11:56:58.803Z,12.50
2023-05-15T11:59:26.824Z,12.23
2023-05-15T12:01:53.066Z,11.85
2023-05-15T12:04:19.654Z,10.70
2023-05-15T12:06:49.465Z,12.57
2023-05-15T12:09:27.096Z,12.95
2023-05-15T12:11:56.484Z,12.48
2023-05-15T12:14:29.254Z,11.45
2023-05-15T12:17:02.532Z,10.60
2023-05-15T12:19:29.055Z,11.40
2023-05-15T12:21:55.337Z,11.90
2023-05-15T12:24:21.790Z,11.00
2023-05-15T12:26:48.192Z,10.07
2023-05-15T12:29:14.839Z,10.13
2023-05-15T12:31:41.213Z,10.35
2023-05-15T12:34:07.549Z,9.05
2023-05-15T12:36:33.990Z,8.82
2023-05-15T12:39:06.074Z,8.18
2023-05-15T12:41:32.402Z,9.88
2023-05-15T12:43:58.933Z,11.65
2023-05-15T12:46:25.643Z,9.48
2023-05-15T12:48:52.031Z,8.68
2023-05-15T12:51:18.347Z,8.07
2023-05-15T12:53:44.744Z,10.75
2023-05-15T12:56:15.249Z,11.13
2023-05-15T12:58:41.492Z,9.27
2023-05-15T13:01:07.970Z,10.70
2023-05-15T13:03:34.836Z,9.15
2023-05-15T13:06:02.159Z,9.60
2023-05-15T13:08:29.060Z,9.85
2023-05-15T13:10:59.290Z,9.77
2023-05-15T13:13:41.095Z,10.13
2023-05-15T13:16:17.247Z,8.68
2023-05-15T13:18:43.532Z,8.48
2023-05-15T13:21:09.826Z,8.95
2023-05-15T13:23:36.070Z,9.00
2023-05-15T13:26:02.263Z,9.30
2023-05-15T13:28:28.519Z,10.35
2023-05-15T13:30:54.729Z,10.05
2023-05-15T13:33:21.010Z,8.75
2023-05-15T13:38:31.503Z,8.48
2023-05-15T13:40:58.125Z,8.88
2023-05-15T13:43:26.395Z,9.10
2023-05-15T13:45:53.021Z,8.38
2023-05-15T13:48:19.264Z,7.25
2023-05-15T13:50:45.744Z,7.88
2023-05-15T13:53:16.511Z,7.47
2023-05-15T13:55:44.954Z,7.38
2023-05-15T13:58:14.284Z,7.47
2023-05-15T14:00:42.482Z,8.05
2023-05-15T14:03:09.008Z,7.25
2023-05-15T14:05:35.339Z,8.18
2023-05-15T14:08:01.570Z,8.23
2023-05-15T14:10:27.871Z,10.85
2023-05-15T14:12:54.157Z,9.98
2023-05-15T14:15:20.374Z,10.50
2023-05-15T14:17:48.599Z,10.18
2023-05-15T14:20:14.918Z,10.07
2023-05-15T14:22:41.284Z,11.52
2023-05-15T14:25:08.757Z,15.13
2023-05-15T14:27:35.375Z,16.08
2023-05-15T14:30:01.645Z,14.75
2023-05-15T14:32:27.855Z,16.15
2023-05-15T14:34:54.116Z,15.23
2023-05-15T14:37:20.384Z,16.60
2023-05-15T14:39:46.690Z,18.75
2023-05-15T14:42:12.895Z,19.27
2023-05-15T14:44:39.098Z,15.70
2023-05-15T14:47:09.107Z,17.02
2023-05-15T14:49:35.720Z,15.80
2023-05-15T14:52:02.252Z,14.27
2023-05-15T14:54:28.667Z,14.85
2023-05-15T14:56:56.888Z,16.13
2023-05-15T14:59:24.301Z,15.65
2023-05-15T15:01:50.587Z,14.77
2023-05-15T15:04:16.992Z,15.20
2023-05-15T15:06:44.118Z,13.73
2023-05-15T15:09:10.604Z,12.68
2023-05-15T15:11:36.824Z,12.18
2023-05-15T15:14:03.792Z,11.75
2023-05-15T15:16:30.117Z,11.32
2023-05-15T15:18:56.355Z,14.05
2023-05-15T15:21:22.751Z,10.90
2023-05-15T15:23:49.009Z,10.35
2023-05-15T15:26:15.697Z,11.02
2023-05-15T15:28:42.450Z,13.27
2023-05-15T15:31:09.548Z,11.30
2023-05-15T15:33:35.889Z,12.40
2023-05-15T15:36:02.102Z,11.02
2023-05-15T15:38:28.313Z,9.82
2023-05-15T15:40:54.558Z,10.85
2023-05-15T15:43:21.038Z,11.32
2023-05-15T15:45:47.317Z,11.30
2023-05-15T15:48:13.604Z,10.88
2023-05-15T15:50:39.860Z,11.38
2023-05-15T15:53:06.121Z,10.63
2023-05-15T15:55:32.351Z,9.40
2023-05-15T15:57:58.547Z,11.27
2023-05-15T16:00:25.045Z,12.43
2023-05-15T16:02:51.592Z,12.40
2023-05-15T16:05:17.984Z,12.88
2023-05-15T16:07:44.371Z,13.38
2023-05-15T16:10:13.439Z,12.65
2023-05-15T16:12:40.642Z,12.43
2023-05-15T16:15:21.088Z,13.07
2023-05-15T16:17:50.298Z,12.35
2023-05-15T16:20:16.820Z,14.68
2023-05-15T16:22:43.891Z,13.73
2023-05-15T16:25:10.393Z,14.38
2023-05-15T16:27:36.687Z,15.25
2023-05-15T16:30:03.023Z,28.10
2023-05-15T16:32:29.342Z,20.33
2023-05-15T16:34:56.178Z,19.25
2023-05-15T16:37:22.388Z,19.95
2023-05-15T16:39:49.017Z,18.85
2023-05-15T16:42:15.350Z,21.17
2023-05-15T16:44:41.548Z,22.65
2023-05-15T16:47:07.915Z,19.42
2023-05-15T16:49:34.156Z,17.55
2023-05-15T16:52:00.351Z,16.35
2023-05-15T16:54:26.560Z,15.00
2023-05-15T16:56:52.757Z,15.32
2023-05-15T16:59:18.972Z,16.42
2023-05-15T17:01:45.386Z,15.50
2023-05-15T17:04:11.784Z,14.52
2023-05-15T17:06:38.081Z,15.48
2023-05-15T17:09:04.471Z,15.52
2023-05-15T17:11:30.892Z,17.13
2023-05-15T17:13:57.131Z,15.43
2023-05-15T17:16:23.385Z,16.95
2023-05-15T17:18:49.798Z,16.55
2023-05-15T17:21:16.090Z,16.13
2023-05-15T17:23:42.307Z,16.08
2023-05-15T17:26:08.511Z,16.33
2023-05-15T17:28:35.850Z,16.45
2023-05-15T17:31:12.581Z,17.70
2023-05-15T17:33:38.794Z,16.88
2023-05-15T17:36:05.050Z,16.42
2023-05-15T17:38:31.254Z,16.33
2023-05-15T17:40:57.647Z,17.27
2023-05-15T17:43:23.860Z,17.45
2023-05-15T17:45:50.121Z,16.42
2023-05-15T17:48:16.542Z,16.70
2023-05-15T17:50:42.776Z,17.15
2023-05-15T17:53:10.015Z,16.75
2023-05-15T17:55:36.231Z,18.73
2023-05-15T17:58:02.524Z,20.17
2023-05-15T18:00:28.739Z,19.50
2023-05-15T18:02:55.104Z,20.80
2023-05-15T18:05:21.424Z,19.48
2023-05-15T18:07:48.067Z,19.15
2023-05-15T18:10:14.363Z,21.42
2023-05-15T18:12:40.658Z,20.30
2023-05-15T18:15:07.152Z,19.60
2023-05-15T18:17:33.401Z,18.83
2023-05-15T18:19:59.809Z,18.02
2023-05-15T18:22:26.050Z,17.90
2023-05-15T18:24:52.280Z,16.73
2023-05-15T18:27:18.575Z,15.95
2023-05-15T18:29:45.649Z,15.93
2023-05-15T18:32:11.961Z,14.75
2023-05-15T18:34:38.258Z,14.05
2023-05-15T18:37:04.545Z,12.63
2023-05-15T18:39:30.854Z,12.70
2023-05-15T18:41:57.083Z,11.70
2023-05-15T18:44:23.336Z,10.93
2023-05-15T18:46:49.554Z,9.98
2023-05-15T18:49:17.880Z,9.52
2023-05-15T18:51:44.315Z,9.25
2023-05-15T18:54:10.595Z,8.30
2023-05-15T18:56:37.229Z,7.93
2023-05-15T18:59:03.421Z,7.47
2023-05-15T19:01:29.829Z,7.57
2023-05-15T19:03:56.063Z,7.10
2023-05-15T19:06:22.327Z,6.72
2023-05-15T19:08:48.827Z,7.68
2023-05-15T19:11:15.602Z,6.70
2023-05-15T19:13:41.835Z,7.25
2023-05-15T19:16:08.844Z,7.07
2023-05-15T19:18:35.270Z,7.32
2023-05-15T19:21:01.567Z,6.80
2023-05-15T19:23:27.812Z,6.65
2023-05-15T19:25:54.449Z,5.72
2023-05-15T19:28:20.653Z,6.15
2023-05-15T19:30:46.922Z,7.13
2023-05-15T19:33:15.320Z,6.75
2023-05-15T19:35:41.534Z,5.55
2023-05-15T19:38:07.825Z,6.15
2023-05-15T19:40:34.643Z,6.32
2023-05-15T19:43:00.884Z,6.18
2023-05-15T19:45:27.229Z,6.50
2023-05-15T19:47:53.583Z,6.47
2023-05-15T19:50:19.957Z,6.50
2023-05-15T19:52:46.199Z,5.93
2023-05-15T19:55:12.410Z,5.68
2023-05-15T19:57:39.972Z,5.80
2023-05-15T20:00:07.793Z,5.93
2023-05-15T20:02:34.513Z,5.53
2023-05-15T20:05:00.927Z,6.05
2023-05-15T20:07:27.152Z,5.93
2023-05-15T20:09:54.720Z,5.80
2023-05-15T20:12:21.037Z,7.60
2023-05-15T20:14:50.795Z,5.95
2023-05-15T20:17:17.037Z,5.60
2023-05-15T20:19:43.318Z,5.68
2023-05-15T20:22:09.548Z,5.38
2023-05-15T20:24:35.829Z,5.57
2023-05-15T20:27:03.947Z,5.45
2023-05-15T20:29:30.231Z,5.53
2023-05-15T20:31:57.034Z,5.60
2023-05-15T20:34:23.328Z,5.13
2023-05-15T20:36:52.621Z,4.97
2023-05-15T20:39:19.648Z,5.30
2023-05-15T20:41:46.232Z,4.65
2023-05-15T20:44:12.443Z,4.80
2023-05-15T20:46:39.554Z,4.70
2023-05-15T20:49:05.936Z,4.93
2023-05-15T20:51:32.217Z,4.82
2023-05-15T20:53:58.547Z,4.40
2023-05-15T20:56:25.609Z,4.43
2023-05-15T20:58:51.906Z,4.60
2023-05-15T21:01:18.077Z,4.78
2023-05-15T21:03:44.547Z,5.22
2023-05-15T21:06:10.966Z,5.18
2023-05-15T21:08:37.230Z,5.10
2023-05-15T21:11:03.441Z,5.57
2023-05-15T21:13:29.664Z,5.45
2023-05-15T21:15:55.914Z,5.40
2023-05-15T21:18:22.240Z,4.80
2023-05-15T21:20:48.469Z,5.60
2023-05-15T21:23:14.843Z,5.28
2023-05-15T21:25:42.297Z,5.20
2023-05-15T21:28:08.556Z,5.70
2023-05-15T21:30:34.819Z,4.97
2023-05-15T21:33:01.114Z,4.80
2023-05-15T21:35:28.881Z,4.88
2023-05-15T21:37:55.342Z,5.03
2023-05-15T21:40:21.617Z,4.38
2023-05-15T21:42:47.828Z,5.63
2023-05-15T21:45:14.036Z,5.13
2023-05-15T21:47:40.376Z,5.50
2023-05-15T21:50:06.925Z,5.10
2023-05-15T21:52:33.133Z,5.22
2023-05-15T21:54:59.338Z,4.93
2023-05-15T21:57:25.615Z,5.40
2023-05-15T21:59:51.850Z,5.00
2023-05-15T22:02:18.400Z,5.65
2023-05-15T22:04:44.708Z,5.97
2023-05-15T22:07:11.173Z,5.57
2023-05-15T22:09:37.565Z,6.13
2023-05-15T22:12:04.352Z,6.18
2023-05-15T22:14:30.659Z,5.45
2023-05-15T22:16:56.850Z,6.30
2023-05-15T22:19:32.635Z,6.57
2023-05-15T22:22:00.423Z,6.90
2023-05-15T22:24:26.828Z,5.78
2023-05-15T22:26:53.051Z,5.82
2023-05-15T22:29:19.560Z,6.22
2023-05-15T22:31:45.972Z,7.03
2023-05-15T22:34:12.201Z,6.25
2023-05-15T22:36:38.423Z,5.85
2023-05-15T22:39:04.753Z,6.15
2023-05-15T22:41:31.403Z,6.38
2023-05-15T22:43:57.601Z,6.05
2023-05-15T22:46:23.901Z,6.80
2023-05-15T22:48:52.810Z,6.28
2023-05-15T22:51:19.012Z,5.85
2023-05-15T22:53:45.209Z,6.10
2023-05-15T22:56:11.452Z,5.80
2023-05-15T22:58:37.648Z,6.50
2023-05-15T23:01:04.164Z,6.10
2023-05-15T23:03:30.486Z,6.60
2023-05-15T23:05:56.762Z,6.57
2023-05-15T23:08:23.107Z,5.93
2023-05-15T23:10:49.386Z,5.78
2023-05-15T23:13:15.607Z,5.70
2023-05-15T23:15:43.942Z,5.68
2023-05-15T23:18:10.804Z,5.85
2023-05-15T23:20:37.507Z,5.80
2023-05-15T23:23:03.719Z,4.70
2023-05-15T23:25:30.496Z,4.10
2023-05-15T23:27:56.761Z,3.95
2023-05-15T23:30:22.979Z,3.78
2023-05-15T23:32:50.225Z,3.40
2023-05-15T23:35:16.583Z,3.33
2023-05-15T23:37:42.896Z,3.67
2023-05-15T23:40:09.328Z,3.42
2023-05-15T23:42:35.564Z,3.17
2023-05-15T23:45:01.836Z,3.88
2023-05-15T23:47:28.330Z,3.28
2023-05-15T23:49:54.828Z,3.83
2023-05-15T23:52:21.113Z,3.80
2023-05-15T23:54:47.358Z,3.75
2023-05-15T23:57:13.580Z,3.33
2023-05-15T23:59:39.766Z,3.75
